createdAt,value
2019-05-15T00:01:08.779Z,10.20
2019-05-15T00:03:39.203Z,10.10
2019-05-15T00:06:08.772Z,10.10
2019-05-15T00:08:38.851Z,10.10
2019-05-15T00:11:08.424Z,10.00
2019-05-15T00:13:38.885Z,9.90
2019-05-15T00:16:08.617Z,9.90
2019-05-15T00:18:39.034Z,9.80
2019-05-15T00:21:09.258Z,9.80
2019-05-15T00:23:38.964Z,9.70
2019-05-15T00:26:09.294Z,9.70
2019-05-15T00:28:39.128Z,9.60
2019-05-15T00:31:08.964Z,9.60
2019-05-15T00:33:39.350Z,9.60
2019-05-15T00:36:08.883Z,9.60
2019-05-15T00:38:39.068Z,9.60
2019-05-15T00:41:09.480Z,9.50
2019-05-15T00:43:38.934Z,9.50
2019-05-15T00:46:18.351Z,9.50
2019-05-15T00:48:48.713Z,9.40
2019-05-15T00:51:19.532Z,9.40
2019-05-15T00:53:48.894Z,9.40
2019-05-15T00:56:19.456Z,9.40
2019-05-15T00:58:48.774Z,9.30
2019-05-15T01:01:19.342Z,9.30
2019-05-15T01:03:49.342Z,9.30
2019-05-15T01:06:19.128Z,9.30
2019-05-15T01:08:48.518Z,9.30
2019-05-15T01:11:19.165Z,9.20
2019-05-15T01:13:48.557Z,9.20
2019-05-15T01:16:18.651Z,9.20
2019-05-15T01:18:49.116Z,9.10
2019-05-15T01:21:18.883Z,9.10
2019-05-15T01:23:48.483Z,9.10
2019-05-15T01:26:18.845Z,9.00
2019-05-15T01:28:49.443Z,9.00
2019-05-15T01:31:19.135Z,8.90
2019-05-15T01:33:48.409Z,8.90
2019-05-15T01:36:19.316Z,8.80
2019-05-15T01:38:48.311Z,8.80
2019-05-15T01:41:18.862Z,8.70
2019-05-15T01:43:48.965Z,8.60
2019-05-15T01:46:19.112Z,8.60
2019-05-15T01:48:49.346Z,8.50
2019-05-15T01:51:18.643Z,8.40
2019-05-15T01:53:48.143Z,8.40
2019-05-15T01:56:18.747Z,8.40
2019-05-15T01:58:48.746Z,8.30
2019-05-15T02:01:19.242Z,8.30
2019-05-15T02:03:49.269Z,8.20
2019-05-15T02:06:19.147Z,8.20
2019-05-15T02:08:49.676Z,8.20
2019-05-15T02:11:19.037Z,8.10
2019-05-15T02:13:48.129Z,8.10
2019-05-15T02:16:19.195Z,8.00
2019-05-15T02:18:48.889Z,8.00
2019-05-15T02:21:18.434Z,8.00
2019-05-15T02:23:48.199Z,8.00
2019-05-15T02:26:18.930Z,8.10
2019-05-15T02:28:48.827Z,8.10
2019-05-15T02:31:19.625Z,8.10
2019-05-15T02:33:49.794Z,8.10
2019-05-15T02:36:20.577Z,8.00
2019-05-15T02:38:50.009Z,8.00
2019-05-15T02:41:19.660Z,7.90
2019-05-15T02:43:50.119Z,7.90
2019-05-15T02:46:19.792Z,7.80
2019-05-15T02:48:49.157Z,7.80
2019-05-15T02:51:19.352Z,7.80
2019-05-15T02:53:50.008Z,7.70
2019-05-15T02:56:20.504Z,7.70
2019-05-15T02:58:49.822Z,7.70
2019-05-15T03:01:19.187Z,7.70
2019-05-15T03:03:49.651Z,7.60
2019-05-15T03:06:19.508Z,7.60
2019-05-15T03:08:49.687Z,7.50
2019-05-15T03:11:19.222Z,7.50
2019-05-15T03:13:50.362Z,7.50
2019-05-15T03:16:19.654Z,7.40
2019-05-15T03:18:50.540Z,7.40
2019-05-15T03:21:19.702Z,7.40
2019-05-15T03:23:50.700Z,7.40
2019-05-15T03:26:20.069Z,7.30
2019-05-15T03:28:49.722Z,7.30
2019-05-15T03:31:40.714Z,7.20
2019-05-15T03:33:54.084Z,7.20
2019-05-15T03:36:23.331Z,7.20
2019-05-15T03:38:51.462Z,7.10
2019-05-15T03:41:20.608Z,7.10
2019-05-15T03:43:49.897Z,7.00
2019-05-15T03:46:19.989Z,7.00
2019-05-15T03:48:49.549Z,7.00
2019-05-15T03:51:19.805Z,6.90
2019-05-15T03:53:49.936Z,6.90
2019-05-15T03:56:19.501Z,6.80
2019-05-15T03:58:49.426Z,6.80
2019-05-15T04:01:30.052Z,6.80
2019-05-15T04:03:49.827Z,6.80
2019-05-15T04:06:19.550Z,6.70
2019-05-15T04:08:49.737Z,6.70
2019-05-15T04:11:20.237Z,6.70
2019-05-15T04:13:50.177Z,6.70
2019-05-15T04:16:19.501Z,6.70
2019-05-15T04:18:49.258Z,6.70
2019-05-15T04:21:19.986Z,6.60
2019-05-15T04:23:50.224Z,6.60
2019-05-15T04:26:22.306Z,6.60
2019-05-15T04:28:52.377Z,6.60
2019-05-15T04:31:21.478Z,6.60
2019-05-15T04:33:50.536Z,6.70
2019-05-15T04:36:22.223Z,6.70
2019-05-15T04:38:52.565Z,6.70
2019-05-15T04:41:21.667Z,6.70
2019-05-15T04:43:50.767Z,6.80
2019-05-15T04:46:20.169Z,6.70
2019-05-15T04:48:50.100Z,6.80
2019-05-15T04:51:19.726Z,6.80
2019-05-15T04:53:50.238Z,6.90
2019-05-15T04:56:19.821Z,6.90
2019-05-15T04:58:50.638Z,7.00
2019-05-15T05:01:20.339Z,7.00
2019-05-15T05:03:49.878Z,7.10
2019-05-15T05:06:19.820Z,7.10
2019-05-15T05:08:49.428Z,7.20
2019-05-15T05:11:19.810Z,7.20
2019-05-15T05:13:49.374Z,7.30
2019-05-15T05:16:19.276Z,7.30
2019-05-15T05:18:48.963Z,7.40
2019-05-15T05:21:18.485Z,7.40
2019-05-15T05:23:48.435Z,7.50
2019-05-15T05:26:18.529Z,7.50
2019-05-15T05:28:48.784Z,7.60
2019-05-15T05:31:19.068Z,7.60
2019-05-15T05:33:48.729Z,7.70
2019-05-15T05:36:18.536Z,7.70
2019-05-15T05:38:49.425Z,7.70
2019-05-15T05:41:19.040Z,7.80
2019-05-15T05:43:48.841Z,7.80
2019-05-15T05:46:18.567Z,7.80
2019-05-15T05:48:48.973Z,7.90
2019-05-15T05:51:19.051Z,7.90
2019-05-15T05:53:48.492Z,8.00
2019-05-15T05:56:18.164Z,8.00
2019-05-15T05:58:49.130Z,8.10
2019-05-15T06:01:18.806Z,8.10
2019-05-15T06:03:49.054Z,8.20
2019-05-15T06:06:18.766Z,8.20
2019-05-15T06:08:48.216Z,8.30
2019-05-15T06:11:18.364Z,8.40
2019-05-15T06:13:51.905Z,8.40
2019-05-15T06:16:19.004Z,8.50
2019-05-15T06:18:49.237Z,8.60
2019-05-15T06:21:18.594Z,8.60
2019-05-15T06:23:54.749Z,8.70
2019-05-15T06:26:19.682Z,8.80
2019-05-15T06:28:49.278Z,8.90
2019-05-15T06:31:18.955Z,8.90
2019-05-15T06:33:49.084Z,9.00
2019-05-15T06:36:18.501Z,9.10
2019-05-15T06:38:48.350Z,9.20
2019-05-15T06:41:18.315Z,9.20
2019-05-15T06:43:48.331Z,9.30
2019-05-15T06:46:18.793Z,9.40
2019-05-15T06:48:48.622Z,9.40
2019-05-15T06:51:18.281Z,9.50
2019-05-15T06:53:49.150Z,9.60
2019-05-15T06:56:18.916Z,9.70
2019-05-15T06:58:48.744Z,9.70
2019-05-15T07:01:18.862Z,9.80
2019-05-15T07:03:48.552Z,9.90
2019-05-15T07:06:18.244Z,10.00
2019-05-15T07:08:49.567Z,10.10
2019-05-15T07:11:19.141Z,10.10
2019-05-15T07:13:48.711Z,10.20
2019-05-15T07:16:18.264Z,10.30
2019-05-15T07:18:48.611Z,10.40
2019-05-15T07:21:20.512Z,10.50
2019-05-15T07:23:49.661Z,10.50
2019-05-15T07:26:18.999Z,10.60
2019-05-15T07:28:48.565Z,10.70
2019-05-15T07:31:18.139Z,10.80
2019-05-15T07:33:49.085Z,10.90
2019-05-15T07:36:19.201Z,10.90
2019-05-15T07:38:48.711Z,11.00
2019-05-15T07:41:18.442Z,11.10
2019-05-15T07:43:49.392Z,11.20
2019-05-15T07:46:18.770Z,11.20
2019-05-15T07:48:49.075Z,11.30
2019-05-15T07:51:18.535Z,11.40
2019-05-15T07:53:49.119Z,11.40
2019-05-15T07:56:18.325Z,11.50
2019-05-15T07:58:52.510Z,11.60
2019-05-15T08:01:18.653Z,11.60
2019-05-15T08:03:58.957Z,11.70
2019-05-15T08:06:18.706Z,11.80
2019-05-15T08:08:48.602Z,11.90
2019-05-15T08:11:23.926Z,11.90
2019-05-15T08:13:48.826Z,12.00
2019-05-15T08:16:18.191Z,12.10
2019-05-15T08:18:48.432Z,12.10
2019-05-15T08:21:18.515Z,12.20
2019-05-15T08:23:48.415Z,12.30
2019-05-15T08:26:17.967Z,12.40
2019-05-15T08:28:48.671Z,12.40
2019-05-15T08:31:18.451Z,12.50
2019-05-15T08:33:48.164Z,12.60
2019-05-15T08:36:18.375Z,12.60
2019-05-15T08:38:48.620Z,12.70
2019-05-15T08:41:18.489Z,12.80
2019-05-15T08:43:48.731Z,12.80
2019-05-15T08:46:18.790Z,12.90
2019-05-15T08:48:49.111Z,13.00
2019-05-15T08:51:19.281Z,13.10
2019-05-15T08:53:48.934Z,13.10
2019-05-15T08:56:19.372Z,13.20
2019-05-15T08:58:49.631Z,13.30
2019-05-15T09:01:18.717Z,13.30
2019-05-15T09:03:48.900Z,13.40
2019-05-15T09:06:22.699Z,13.40
2019-05-15T09:08:49.573Z,13.50
2019-05-15T09:11:19.223Z,13.60
2019-05-15T09:13:53.739Z,13.70
2019-05-15T09:16:19.365Z,13.70
2019-05-15T09:18:48.703Z,13.80
2019-05-15T09:21:19.174Z,13.90
2019-05-15T09:23:49.883Z,14.00
2019-05-15T09:26:19.651Z,14.00
2019-05-15T09:28:49.550Z,14.10
2019-05-15T09:31:19.422Z,14.20
2019-05-15T09:33:49.315Z,14.20
2019-05-15T09:36:20.204Z,14.30
2019-05-15T09:38:49.623Z,14.30
2019-05-15T09:41:18.720Z,14.40
2019-05-15T09:43:48.529Z,14.40
2019-05-15T09:46:18.478Z,14.50
2019-05-15T09:48:51.567Z,14.60
2019-05-15T09:51:18.677Z,14.60
2019-05-15T09:53:48.534Z,14.70
2019-05-15T09:56:18.683Z,14.90
2019-05-15T09:58:48.935Z,14.90
2019-05-15T10:01:19.750Z,15.00
2019-05-15T10:03:49.197Z,15.10
2019-05-15T10:06:20.549Z,15.20
2019-05-15T10:08:49.262Z,15.30
2019-05-15T10:11:19.662Z,15.30
2019-05-15T10:13:49.172Z,15.40
2019-05-15T10:16:19.887Z,15.50
2019-05-15T10:18:50.808Z,15.50
2019-05-15T10:21:20.083Z,15.60
2019-05-15T10:23:49.654Z,15.60
2019-05-15T10:26:19.421Z,15.70
2019-05-15T10:28:49.499Z,15.70
2019-05-15T10:31:19.453Z,15.80
2019-05-15T10:33:52.868Z,15.90
2019-05-15T10:36:21.944Z,15.90
2019-05-15T10:38:51.094Z,16.00
2019-05-15T10:41:20.511Z,16.10
2019-05-15T10:43:56.255Z,16.10
2019-05-15T10:46:20.548Z,16.20
2019-05-15T10:48:49.725Z,16.30
2019-05-15T10:51:19.703Z,16.30
2019-05-15T10:53:49.103Z,16.40
2019-05-15T10:56:18.705Z,16.40
2019-05-15T10:58:50.451Z,16.50
2019-05-15T11:01:19.325Z,16.60
2019-05-15T11:03:49.547Z,16.70
2019-05-15T11:06:18.956Z,16.70
2019-05-15T11:08:50.963Z,16.80
2019-05-15T11:11:18.944Z,16.80
2019-05-15T11:13:48.044Z,17.00
2019-05-15T11:16:18.575Z,17.00
2019-05-15T11:18:48.297Z,17.10
2019-05-15T11:21:19.079Z,17.20
2019-05-15T11:23:49.359Z,17.20
2019-05-15T11:26:19.509Z,17.30
2019-05-15T11:28:49.813Z,17.30
2019-05-15T11:31:19.774Z,17.30
2019-05-15T11:33:49.356Z,17.40
2019-05-15T11:36:18.717Z,17.50
2019-05-15T11:38:48.594Z,17.60
2019-05-15T11:41:19.161Z,17.70
2019-05-15T11:43:49.484Z,17.70
2019-05-15T11:46:18.869Z,17.80
2019-05-15T11:48:49.805Z,17.90
2019-05-15T11:51:18.801Z,18.00
2019-05-15T11:53:49.183Z,18.00
2019-05-15T11:56:19.058Z,18.10
2019-05-15T11:58:48.349Z,18.20
2019-05-15T12:01:19.046Z,18.30
2019-05-15T12:03:48.354Z,18.30
2019-05-15T12:06:21.932Z,18.40
2019-05-15T12:08:48.257Z,18.40
2019-05-15T12:11:31.910Z,18.50
2019-05-15T12:13:48.234Z,18.50
2019-05-15T12:16:17.335Z,18.50
2019-05-15T12:18:48.339Z,18.60
2019-05-15T12:21:19.916Z,18.60
2019-05-15T12:23:49.315Z,18.70
2019-05-15T12:26:18.417Z,18.70
2019-05-15T12:28:49.050Z,18.80
2019-05-15T12:31:23.804Z,18.70
2019-05-15T12:33:49.095Z,18.80
2019-05-15T12:38:50.193Z,18.80
2019-05-15T13:01:26.449Z,19.20
2019-05-15T13:03:57.839Z,19.30
2019-05-15T13:06:28.513Z,19.40
2019-05-15T13:08:59.493Z,19.40
2019-05-15T13:11:28.926Z,19.50
2019-05-15T13:13:59.129Z,19.50
2019-05-15T13:16:28.438Z,19.50
2019-05-15T13:18:58.875Z,19.60
2019-05-15T13:21:29.617Z,19.70
2019-05-15T13:23:59.031Z,19.70
2019-05-15T13:26:28.134Z,19.70
2019-05-15T13:28:58.281Z,19.80
2019-05-15T13:31:28.382Z,19.80
2019-05-15T13:33:58.839Z,19.80
2019-05-15T13:36:28.789Z,19.90
2019-05-15T13:38:58.351Z,19.90
2019-05-15T13:41:28.278Z,19.90
2019-05-15T13:43:58.413Z,20.00
2019-05-15T13:46:29.065Z,20.00
2019-05-15T13:48:59.510Z,20.10
2019-05-15T13:51:29.227Z,20.10
2019-05-15T13:53:58.457Z,20.20
2019-05-15T13:56:28.994Z,20.20
2019-05-15T13:58:58.749Z,20.30
2019-05-15T14:01:28.633Z,20.30
2019-05-15T14:03:58.823Z,20.30
2019-05-15T14:06:28.779Z,20.30
2019-05-15T14:08:58.259Z,20.30
2019-05-15T14:11:30.868Z,20.40
2019-05-15T14:13:59.475Z,20.40
2019-05-15T14:16:28.961Z,20.40
2019-05-15T14:18:58.705Z,20.40
2019-05-15T14:21:28.605Z,20.40
2019-05-15T14:24:01.308Z,20.40
2019-05-15T14:26:28.707Z,20.50
2019-05-15T14:28:58.711Z,20.50
2019-05-15T14:31:28.629Z,20.50
2019-05-15T14:33:58.074Z,20.60
2019-05-15T14:36:28.803Z,20.60
2019-05-15T14:38:58.728Z,20.60
2019-05-15T14:41:29.241Z,20.50
2019-05-15T14:44:11.977Z,20.60
2019-05-15T14:46:29.607Z,20.50
2019-05-15T14:48:58.715Z,20.60
2019-05-15T14:51:28.522Z,20.60
2019-05-15T14:53:58.390Z,20.60
2019-05-15T14:56:27.607Z,20.60
2019-05-15T14:58:58.613Z,20.60
2019-05-15T15:01:27.525Z,20.60
2019-05-15T15:03:58.144Z,20.60
2019-05-15T15:06:27.436Z,20.60
2019-05-15T15:08:59.091Z,20.60
2019-05-15T15:11:28.457Z,20.60
2019-05-15T15:13:57.965Z,20.60
2019-05-15T15:16:29.207Z,20.60
2019-05-15T15:18:58.494Z,20.60
2019-05-15T15:21:29.243Z,20.60
2019-05-15T15:23:58.861Z,20.60
2019-05-15T15:26:28.091Z,20.60
2019-05-15T15:28:59.024Z,20.60
2019-05-15T15:31:28.882Z,20.60
2019-05-15T15:33:58.398Z,20.60
2019-05-15T15:36:28.546Z,20.60
2019-05-15T15:38:58.833Z,20.60
2019-05-15T15:41:28.615Z,20.50
2019-05-15T15:43:58.670Z,20.50
2019-05-15T15:46:28.701Z,20.50
2019-05-15T15:48:59.275Z,20.50
2019-05-15T15:51:28.798Z,20.40
2019-05-15T15:53:57.890Z,20.40
2019-05-15T15:56:29.058Z,20.40
2019-05-15T15:58:59.432Z,20.40
2019-05-15T16:01:31.424Z,20.30
2019-05-15T16:03:59.559Z,20.30
2019-05-15T16:06:29.345Z,20.30
2019-05-15T16:08:59.613Z,20.30
2019-05-15T16:11:28.948Z,20.30
2019-05-15T16:13:58.724Z,20.20
2019-05-15T16:16:28.548Z,20.20
2019-05-15T16:18:58.190Z,20.20
2019-05-15T16:21:28.729Z,20.10
2019-05-15T16:23:58.333Z,20.10
2019-05-15T16:26:29.134Z,20.00
2019-05-15T16:29:01.641Z,20.00
2019-05-15T16:31:30.013Z,19.90
2019-05-15T16:34:00.618Z,19.90
2019-05-15T16:36:31.459Z,19.90
2019-05-15T16:39:07.743Z,19.90
2019-05-15T16:41:39.710Z,19.80
2019-05-15T16:44:10.719Z,19.80
2019-05-15T16:46:41.351Z,19.70
2019-05-15T16:49:11.318Z,19.70
2019-05-15T16:51:43.727Z,19.60
2019-05-15T16:54:13.569Z,19.60
2019-05-15T16:56:43.927Z,19.60
2019-05-15T16:59:13.567Z,19.60
2019-05-15T17:01:43.792Z,19.60
2019-05-15T17:04:13.379Z,19.50
2019-05-15T17:06:42.913Z,19.50
2019-05-15T17:09:21.318Z,19.50
2019-05-15T17:11:45.569Z,19.50
2019-05-15T17:14:15.136Z,19.40
2019-05-15T17:16:45.127Z,19.40
2019-05-15T17:19:14.593Z,19.40
2019-05-15T17:21:44.398Z,19.30
2019-05-15T17:24:14.157Z,19.30
2019-05-15T17:26:43.885Z,19.30
2019-05-15T17:29:13.070Z,19.30
2019-05-15T17:31:42.575Z,19.30
2019-05-15T17:34:11.695Z,19.30
2019-05-15T17:36:40.794Z,19.20
2019-05-15T17:39:09.901Z,19.20
2019-05-15T17:41:39.277Z,19.10
2019-05-15T17:44:08.481Z,19.10
2019-05-15T17:46:38.461Z,19.00
2019-05-15T17:49:14.958Z,18.90
2019-05-15T17:51:38.809Z,18.80
2019-05-15T17:54:08.871Z,18.70
2019-05-15T17:56:39.189Z,18.70
2019-05-15T17:59:08.818Z,18.70
2019-05-15T18:01:38.421Z,18.60
2019-05-15T18:04:08.413Z,18.60
2019-05-15T18:06:39.855Z,18.50
2019-05-15T18:09:08.877Z,18.50
2019-05-15T18:11:38.490Z,18.40
2019-05-15T18:14:08.997Z,18.40
2019-05-15T18:16:38.335Z,18.30
2019-05-15T18:19:08.282Z,18.20
2019-05-15T18:21:38.545Z,18.10
2019-05-15T18:24:09.418Z,18.10
2019-05-15T18:26:38.918Z,18.00
2019-05-15T18:29:09.151Z,17.90
2019-05-15T18:31:38.511Z,17.80
2019-05-15T18:34:08.314Z,17.70
2019-05-15T18:36:39.274Z,17.60
2019-05-15T18:39:08.815Z,17.40
2019-05-15T18:41:38.011Z,17.30
2019-05-15T18:44:07.243Z,17.20
2019-05-15T18:46:38.153Z,17.10
2019-05-15T18:49:07.388Z,16.90
2019-05-15T18:51:38.484Z,16.80
2019-05-15T18:54:08.133Z,16.70
2019-05-15T18:56:38.583Z,16.60
2019-05-15T18:59:08.508Z,16.50
2019-05-15T19:01:39.334Z,16.30
2019-05-15T19:04:09.021Z,16.20
2019-05-15T19:06:38.384Z,16.20
2019-05-15T19:09:08.296Z,16.10
2019-05-15T19:11:38.373Z,16.00
2019-05-15T19:14:08.342Z,15.90
2019-05-15T19:16:38.748Z,15.80
2019-05-15T19:19:08.660Z,15.70
2019-05-15T19:21:38.254Z,15.60
2019-05-15T19:24:07.792Z,15.50
2019-05-15T19:26:37.016Z,15.40
2019-05-15T19:29:08.284Z,15.30
2019-05-15T19:31:39.029Z,15.20
2019-05-15T19:34:08.601Z,15.20
2019-05-15T19:36:38.214Z,15.10
2019-05-15T19:39:08.148Z,15.00
2019-05-15T19:41:38.222Z,14.90
2019-05-15T19:44:08.790Z,14.90
2019-05-15T19:46:38.684Z,14.80
2019-05-15T19:49:08.734Z,14.70
2019-05-15T19:51:38.298Z,14.60
2019-05-15T19:54:09.185Z,14.50
2019-05-15T19:56:38.561Z,14.40
2019-05-15T19:59:08.795Z,14.40
2019-05-15T20:01:38.576Z,14.30
2019-05-15T20:04:08.099Z,14.30
2019-05-15T20:06:38.672Z,14.20
2019-05-15T20:09:08.072Z,14.20
2019-05-15T20:11:38.537Z,14.10
2019-05-15T20:14:07.853Z,14.00
2019-05-15T20:16:38.886Z,13.90
2019-05-15T20:19:08.713Z,13.90
2019-05-15T20:21:38.224Z,13.80
2019-05-15T20:24:08.476Z,13.70
2019-05-15T20:26:38.139Z,13.70
2019-05-15T20:29:09.116Z,13.60
2019-05-15T20:31:38.595Z,13.60
2019-05-15T20:34:09.260Z,13.50
2019-05-15T20:36:38.740Z,13.40
2019-05-15T20:39:08.431Z,13.40
2019-05-15T20:41:38.473Z,13.40
2019-05-15T20:44:08.910Z,13.30
2019-05-15T20:46:39.196Z,13.30
2019-05-15T20:49:08.694Z,13.20
2019-05-15T20:51:38.962Z,13.20
2019-05-15T20:54:08.489Z,13.20
2019-05-15T20:56:38.488Z,13.10
2019-05-15T20:59:08.874Z,13.10
2019-05-15T21:01:38.185Z,13.10
2019-05-15T21:04:19.294Z,13.00
2019-05-15T21:06:39.324Z,13.00
2019-05-15T21:09:08.914Z,13.00
2019-05-15T21:11:39.796Z,12.90
2019-05-15T21:14:08.955Z,12.90
2019-05-15T21:16:38.053Z,12.90
2019-05-15T21:19:08.514Z,12.80
2019-05-15T21:21:38.626Z,12.80
2019-05-15T21:24:10.241Z,12.80
2019-05-15T21:26:38.833Z,12.70
2019-05-15T21:29:07.983Z,12.70
2019-05-15T21:31:37.970Z,12.70
2019-05-15T21:34:08.536Z,12.70
2019-05-15T21:36:39.440Z,12.60
2019-05-15T21:39:08.752Z,12.60
2019-05-15T21:41:38.743Z,12.60
2019-05-15T21:44:08.715Z,12.50
2019-05-15T21:46:37.985Z,12.50
2019-05-15T21:49:08.780Z,12.40
2019-05-15T21:51:38.415Z,12.40
2019-05-15T21:54:09.912Z,12.40
2019-05-15T21:56:38.737Z,12.40
2019-05-15T21:59:08.366Z,12.30
2019-05-15T22:01:39.689Z,12.30
2019-05-15T22:04:08.930Z,12.30
2019-05-15T22:06:40.050Z,12.30
2019-05-15T22:09:45.256Z,12.20
2019-05-15T22:12:14.546Z,12.20
2019-05-15T22:14:43.925Z,12.20
2019-05-15T22:17:13.207Z,12.10
2019-05-15T22:19:42.291Z,12.10
2019-05-15T22:22:11.669Z,12.10
2019-05-15T22:24:40.744Z,12.10
2019-05-15T22:27:09.941Z,12.00
2019-05-15T22:29:39.138Z,12.00
2019-05-15T22:32:08.272Z,11.90
2019-05-15T22:34:37.416Z,11.90
2019-05-15T22:37:08.453Z,11.90
2019-05-15T22:39:38.523Z,11.80
2019-05-15T22:42:08.218Z,11.80
2019-05-15T22:44:38.618Z,11.70
2019-05-15T22:47:07.808Z,11.60
2019-05-15T22:49:38.049Z,11.60
2019-05-15T22:52:08.525Z,11.60
2019-05-15T22:54:38.710Z,11.60
2019-05-15T22:57:08.038Z,11.50
2019-05-15T22:59:38.225Z,11.50
2019-05-15T23:02:09.244Z,11.50
2019-05-15T23:04:38.312Z,11.40
2019-05-15T23:07:08.169Z,11.40
2019-05-15T23:09:38.375Z,11.40
2019-05-15T23:12:11.278Z,11.30
2019-05-15T23:14:38.691Z,11.30
2019-05-15T23:17:08.260Z,11.30
2019-05-15T23:19:38.595Z,11.30
2019-05-15T23:22:08.417Z,11.20
2019-05-15T23:24:38.739Z,11.20
2019-05-15T23:27:08.879Z,11.20
2019-05-15T23:29:38.605Z,11.20
2019-05-15T23:32:07.987Z,11.10
2019-05-15T23:34:38.671Z,11.10
2019-05-15T23:37:08.241Z,11.10
2019-05-15T23:39:38.086Z,11.10
2019-05-15T23:42:08.848Z,11.00
2019-05-15T23:44:38.225Z,11.00
2019-05-15T23:47:07.478Z,11.00
2019-05-15T23:49:38.222Z,10.90
2019-05-15T23:52:08.878Z,10.90
2019-05-15T23:54:38.636Z,10.90
2019-05-15T23:57:08.896Z,10.80
2019-05-15T23:59:38.462Z,10.80
